Capitol Logistics 7332

Operating for MZN



KTPA
Tampa International Airport
Tampa, Florida
KRFD
Chicago/Rockford International Airport
Rockford, Illinois

Activity Log

Date Flight Route Aircraft Duration
10/16/2019 CPX458 ENDED8 LACEN BRUTS Q118 ATL BWG SPI BDF QUOTE B738 2h 43m
09/12/2019 CPX458 ENDED8 LACEN BRUTS Q118 ATL BWG SPI BDF QUOTE B738 2h 31m
07/18/2019 CPX458 ENDED8 LACEN BRUTS Q118 ATL BWG SPI BDF QUOTE B738 2h 35m
06/28/2019 CPX458 ENDED8 LACEN BRUTS Q118 ATL J45 BNA J73 PXV BDF QUOTE B738 2h 20m

Route Details

Aircraft Information
Primary: Boeing 737-800BCF
Backup: Boeing 757-200SF
Route Data
Distance: 913nm
Duration: 2h 31m
Recm'd Route: BAYPO8 CAMJO Q99 TEEEM Q75 FISHO Q93 QUIWE VXV J99 IIU J89 CADIZ JOT QUOTE
Origin Wx: KTPA 180253Z 22008KT 8SM BKN011 25/22 A2990 RMK AO2 SLP124 T02500222 53009
Dest. Wx: KRFD 180254Z 11005KT 10SM BKN250 08/M01 A2998 RMK AO2 SLP155 T00781006 53008
Notes: